createdAt,value
2023-03-29T00:00:47.052Z,8.70
2023-03-29T00:03:15.056Z,8.60
2023-03-29T00:05:44.711Z,8.10
2023-03-29T00:08:14.920Z,8.13
2023-03-29T00:10:42.948Z,7.00
2023-03-29T00:13:10.734Z,7.00
2023-03-29T00:15:41.474Z,7.10
2023-03-29T00:18:09.983Z,6.83
2023-03-29T00:20:37.788Z,6.33
2023-03-29T00:23:05.652Z,5.63
2023-03-29T00:25:33.583Z,5.77
2023-03-29T00:28:01.598Z,5.23
2023-03-29T00:30:29.855Z,6.00
2023-03-29T00:32:59.189Z,5.70
2023-03-29T00:35:27.087Z,5.10
2023-03-29T00:37:55.118Z,5.87
2023-03-29T00:40:23.761Z,5.60
2023-03-29T00:42:51.789Z,5.40
2023-03-29T00:45:22.714Z,5.60
2023-03-29T00:47:57.078Z,6.23
2023-03-29T00:50:32.096Z,6.23
2023-03-29T00:53:06.214Z,6.25
2023-03-29T00:55:42.213Z,6.03
2023-03-29T00:58:14.268Z,6.30
2023-03-29T01:00:52.232Z,6.40
2023-03-29T01:03:28.747Z,6.33
2023-03-29T01:08:37.379Z,5.67
2023-03-29T01:11:14.735Z,6.30
2023-03-29T01:13:50.514Z,5.03
2023-03-29T01:16:21.838Z,6.20
2023-03-29T01:18:50.470Z,5.63
2023-03-29T01:21:29.258Z,6.10
2023-03-29T01:24:38.119Z,6.50
2023-03-29T01:27:17.214Z,5.33
2023-03-29T01:29:55.240Z,5.07
2023-03-29T01:32:35.288Z,5.27
2023-03-29T01:35:11.284Z,5.50
2023-03-29T01:37:48.146Z,5.13
2023-03-29T01:40:16.697Z,5.43
2023-03-29T01:42:55.390Z,4.53
2023-03-29T01:45:33.964Z,4.87
2023-03-29T01:48:11.513Z,4.77
2023-03-29T01:50:48.147Z,4.90
2023-03-29T01:53:24.658Z,5.13
2023-03-29T01:55:57.084Z,4.60
2023-03-29T01:58:33.818Z,4.80
2023-03-29T02:01:09.936Z,4.53
2023-03-29T02:03:45.104Z,4.70
2023-03-29T02:06:18.660Z,4.20
2023-03-29T02:08:47.847Z,4.47
2023-03-29T02:11:16.151Z,4.33
2023-03-29T02:13:44.276Z,4.73
2023-03-29T02:16:15.253Z,4.70
2023-03-29T02:18:48.526Z,4.60
2023-03-29T02:21:34.014Z,4.67
2023-03-29T02:24:11.264Z,5.20
2023-03-29T02:26:39.845Z,5.00
2023-03-29T02:29:08.192Z,4.90
2023-03-29T02:31:45.259Z,4.73
2023-03-29T02:34:22.297Z,4.90
2023-03-29T02:36:55.515Z,5.70
2023-03-29T02:39:26.565Z,4.93
2023-03-29T02:41:56.716Z,4.80
2023-03-29T02:44:28.641Z,5.17
2023-03-29T02:47:06.465Z,5.33
2023-03-29T02:49:34.937Z,4.70
2023-03-29T02:52:11.814Z,5.53
2023-03-29T02:54:43.308Z,5.00
2023-03-29T02:57:12.378Z,5.10
2023-03-29T02:59:43.865Z,5.27
2023-03-29T03:02:13.810Z,5.30
2023-03-29T03:04:44.681Z,5.40
2023-03-29T03:07:13.663Z,5.10
2023-03-29T03:09:42.639Z,5.20
2023-03-29T03:12:10.594Z,5.60
2023-03-29T03:14:38.543Z,5.20
2023-03-29T03:17:06.606Z,5.17
2023-03-29T03:19:36.275Z,5.30
2023-03-29T03:22:05.993Z,5.43
2023-03-29T03:24:34.432Z,5.13
2023-03-29T03:27:02.698Z,5.60
2023-03-29T03:29:30.635Z,5.23
2023-03-29T03:32:17.453Z,5.87
2023-03-29T03:35:22.688Z,5.77
2023-03-29T03:37:51.421Z,5.63
2023-03-29T03:40:20.666Z,5.63
2023-03-29T03:42:48.628Z,6.07
2023-03-29T03:45:16.773Z,5.70
2023-03-29T03:47:44.677Z,5.97
2023-03-29T03:50:23.032Z,5.50
2023-03-29T03:52:51.119Z,5.30
2023-03-29T03:55:18.834Z,5.20
2023-03-29T03:58:08.046Z,5.10
2023-03-29T04:00:35.898Z,5.20
2023-03-29T04:03:22.749Z,5.20
2023-03-29T04:05:52.163Z,5.30
2023-03-29T04:08:25.803Z,5.33
2023-03-29T04:11:13.143Z,5.63
2023-03-29T04:13:43.181Z,5.17
2023-03-29T04:16:34.150Z,5.30
2023-03-29T04:19:16.573Z,5.67
2023-03-29T04:21:49.356Z,5.60
2023-03-29T04:24:17.630Z,5.67
2023-03-29T04:26:58.606Z,5.37
2023-03-29T04:29:26.697Z,5.77
2023-03-29T04:32:11.897Z,5.70
2023-03-29T04:35:06.573Z,5.70
2023-03-29T04:37:37.047Z,5.43
2023-03-29T04:40:08.995Z,5.77
2023-03-29T04:42:49.095Z,5.53
2023-03-29T04:45:18.109Z,5.77
2023-03-29T04:48:00.868Z,5.43
2023-03-29T04:50:28.936Z,5.60
2023-03-29T04:53:00.163Z,6.00
2023-03-29T04:55:29.487Z,5.03
2023-03-29T04:58:06.790Z,5.20
2023-03-29T05:00:36.657Z,5.03
2023-03-29T05:03:22.537Z,5.10
2023-03-29T05:06:06.651Z,4.93
2023-03-29T05:08:40.511Z,5.33
2023-03-29T05:11:15.234Z,5.17
2023-03-29T05:13:44.087Z,5.37
2023-03-29T05:16:11.942Z,5.20
2023-03-29T05:18:40.894Z,5.30
2023-03-29T05:21:09.459Z,5.90
2023-03-29T05:23:39.564Z,6.23
2023-03-29T05:26:15.264Z,10.30
2023-03-29T05:28:47.664Z,14.00
2023-03-29T05:31:17.133Z,12.50
2023-03-29T05:33:48.290Z,9.53
2023-03-29T05:36:19.249Z,10.77
2023-03-29T05:38:51.406Z,13.67
2023-03-29T05:41:22.761Z,11.90
2023-03-29T05:44:09.280Z,10.77
2023-03-29T05:46:39.917Z,9.40
2023-03-29T05:49:08.539Z,9.53
2023-03-29T05:51:56.957Z,8.60
2023-03-29T05:54:27.197Z,7.77
2023-03-29T05:56:55.268Z,8.10
2023-03-29T05:59:24.408Z,7.83
2023-03-29T06:01:52.895Z,7.77
2023-03-29T06:04:22.204Z,7.43
2023-03-29T06:07:02.113Z,8.00
2023-03-29T06:09:33.545Z,7.70
2023-03-29T06:12:06.177Z,8.33
2023-03-29T06:14:37.309Z,8.87
2023-03-29T06:17:33.694Z,9.87
2023-03-29T06:20:06.254Z,9.80
2023-03-29T06:22:35.046Z,10.40
2023-03-29T06:25:05.068Z,10.53
2023-03-29T06:27:35.999Z,10.57
2023-03-29T06:30:05.792Z,11.10
2023-03-29T06:32:35.772Z,11.07
2023-03-29T06:35:11.077Z,10.55
2023-03-29T06:37:49.276Z,10.03
2023-03-29T06:40:37.524Z,10.40
2023-03-29T06:43:06.880Z,9.57
2023-03-29T06:45:48.449Z,9.83
2023-03-29T06:50:54.769Z,9.20
2023-03-29T06:53:28.007Z,9.23
2023-03-29T06:56:08.818Z,9.50
2023-03-29T06:58:44.981Z,8.43
2023-03-29T07:01:34.767Z,8.23
2023-03-29T07:04:18.936Z,8.77
2023-03-29T07:07:11.920Z,8.13
2023-03-29T07:09:40.073Z,8.30
2023-03-29T07:12:44.521Z,8.30
2023-03-29T07:15:13.980Z,8.03
2023-03-29T07:18:08.801Z,8.50
2023-03-29T07:20:38.730Z,7.87
2023-03-29T07:23:09.435Z,7.90
2023-03-29T07:25:38.336Z,8.40
2023-03-29T07:28:08.192Z,8.40
2023-03-29T07:30:37.235Z,7.80
2023-03-29T07:33:18.071Z,7.37
2023-03-29T07:35:55.266Z,7.23
2023-03-29T07:38:23.597Z,7.50
2023-03-29T07:41:05.809Z,6.73
2023-03-29T07:43:41.698Z,7.33
2023-03-29T07:46:11.050Z,7.07
2023-03-29T07:48:40.291Z,7.43
2023-03-29T07:51:11.210Z,6.83
2023-03-29T07:53:44.787Z,6.83
2023-03-29T07:56:42.281Z,6.80
2023-03-29T07:59:22.289Z,6.53
2023-03-29T08:02:03.195Z,6.43
2023-03-29T08:04:54.561Z,6.60
2023-03-29T08:07:44.476Z,6.73
2023-03-29T08:10:29.920Z,6.43
2023-03-29T08:13:10.203Z,6.50
2023-03-29T08:16:09.477Z,6.27
2023-03-29T08:18:43.845Z,6.60
2023-03-29T08:21:14.676Z,6.20
2023-03-29T08:23:46.985Z,6.90
2023-03-29T08:26:19.820Z,6.70
2023-03-29T08:28:49.036Z,5.70
2023-03-29T08:31:20.828Z,7.27
2023-03-29T08:33:49.001Z,6.43
2023-03-29T08:36:35.934Z,6.67
2023-03-29T08:39:11.288Z,6.47
2023-03-29T08:41:57.759Z,7.13
2023-03-29T08:44:53.482Z,7.80
2023-03-29T08:47:35.116Z,6.18
2023-03-29T08:50:04.751Z,8.03
2023-03-29T08:52:50.027Z,5.50
2023-03-29T08:55:40.484Z,7.20
2023-03-29T08:58:37.905Z,5.27
2023-03-29T09:01:09.363Z,6.00
2023-03-29T09:04:00.454Z,8.50
2023-03-29T09:06:42.922Z,4.97
2023-03-29T09:09:22.634Z,9.20
2023-03-29T09:12:11.305Z,7.60
2023-03-29T09:14:57.493Z,5.10
2023-03-29T09:17:39.179Z,6.77
2023-03-29T09:20:33.234Z,5.00
2023-03-29T09:23:25.552Z,4.83
2023-03-29T09:26:28.186Z,4.80
2023-03-29T09:29:29.670Z,5.27
2023-03-29T09:32:01.524Z,6.37
2023-03-29T09:34:37.115Z,6.73
2023-03-29T09:37:22.050Z,6.30
2023-03-29T09:39:53.120Z,5.77
2023-03-29T09:42:28.715Z,7.47
2023-03-29T09:45:08.248Z,5.20
2023-03-29T09:47:49.566Z,5.50
2023-03-29T09:50:31.108Z,4.97
2023-03-29T09:53:04.996Z,5.47
2023-03-29T09:55:39.503Z,5.70
2023-03-29T09:58:34.234Z,6.57
2023-03-29T10:01:09.219Z,8.17
2023-03-29T10:03:41.156Z,8.27
2023-03-29T10:06:14.554Z,6.83
2023-03-29T10:08:52.858Z,7.77
2023-03-29T10:11:28.845Z,7.00
2023-03-29T10:14:03.189Z,7.95
2023-03-29T10:16:38.763Z,6.93
2023-03-29T10:19:19.171Z,7.43
2023-03-29T10:21:49.002Z,7.47
2023-03-29T10:24:21.329Z,7.67
2023-03-29T10:26:55.509Z,7.57
2023-03-29T10:29:27.711Z,7.00
2023-03-29T10:31:55.812Z,7.73
2023-03-29T10:34:27.962Z,8.03
2023-03-29T10:37:00.971Z,8.97
2023-03-29T10:39:34.885Z,9.27
2023-03-29T10:42:04.956Z,9.53
2023-03-29T10:44:36.590Z,10.40
2023-03-29T10:47:14.990Z,8.50
2023-03-29T10:49:46.960Z,9.13
2023-03-29T10:52:19.583Z,9.47
2023-03-29T10:54:52.532Z,8.33
2023-03-29T10:57:33.766Z,9.40
2023-03-29T11:00:10.790Z,9.40
2023-03-29T11:03:26.519Z,10.23
2023-03-29T11:06:05.236Z,9.60
2023-03-29T11:08:57.453Z,10.77
2023-03-29T11:12:15.717Z,11.70
2023-03-29T11:15:02.280Z,9.70
2023-03-29T11:17:54.612Z,10.18
2023-03-29T11:20:37.190Z,11.57
2023-03-29T11:23:27.523Z,10.20
2023-03-29T11:26:11.648Z,12.30
2023-03-29T11:28:50.597Z,15.00
2023-03-29T11:31:37.224Z,13.67
2023-03-29T11:34:26.293Z,11.53
2023-03-29T11:37:08.628Z,12.30
2023-03-29T11:39:46.780Z,12.87
2023-03-29T11:42:22.542Z,12.43
2023-03-29T11:44:57.551Z,13.93
2023-03-29T11:47:31.897Z,15.23
2023-03-29T11:50:07.820Z,14.90
2023-03-29T11:52:43.641Z,15.27
2023-03-29T11:55:18.266Z,16.90
2023-03-29T11:57:53.911Z,15.65
2023-03-29T12:00:30.696Z,15.90
2023-03-29T12:03:06.741Z,17.30
2023-03-29T12:05:42.156Z,15.97
2023-03-29T12:08:18.086Z,15.35
2023-03-29T12:10:53.059Z,17.60
2023-03-29T12:13:28.806Z,15.07
2023-03-29T12:16:08.789Z,14.40
2023-03-29T12:18:43.148Z,15.97
2023-03-29T12:21:16.996Z,13.60
2023-03-29T12:23:52.930Z,14.37
2023-03-29T12:26:50.156Z,13.83
2023-03-29T12:29:43.454Z,14.27
2023-03-29T12:32:36.573Z,13.03
2023-03-29T12:35:46.491Z,13.60
2023-03-29T12:38:35.641Z,14.70
2023-03-29T12:41:24.790Z,13.67
2023-03-29T12:44:16.450Z,14.57
2023-03-29T12:46:54.879Z,14.43
2023-03-29T12:49:29.492Z,16.13
2023-03-29T12:52:01.690Z,14.13
2023-03-29T12:54:32.885Z,16.73
2023-03-29T12:57:18.895Z,12.30
2023-03-29T12:59:49.332Z,11.87
2023-03-29T13:02:37.069Z,13.13
2023-03-29T13:05:34.487Z,14.33
2023-03-29T13:08:23.445Z,14.27
2023-03-29T13:10:55.426Z,13.27
2023-03-29T13:13:28.255Z,14.17
2023-03-29T13:16:08.438Z,12.97
2023-03-29T13:18:55.044Z,14.60
2023-03-29T13:21:38.068Z,16.07
2023-03-29T13:24:38.620Z,14.73
2023-03-29T13:27:25.200Z,16.37
2023-03-29T13:30:15.718Z,15.93
2023-03-29T13:33:00.850Z,21.20
2023-03-29T13:35:45.042Z,14.32
2023-03-29T13:38:21.476Z,13.13
2023-03-29T13:41:02.291Z,15.90
2023-03-29T13:43:51.691Z,11.40
2023-03-29T13:46:24.938Z,10.97
2023-03-29T13:49:15.572Z,11.00
2023-03-29T13:52:02.869Z,11.70
2023-03-29T13:54:42.619Z,10.73
2023-03-29T13:57:17.980Z,9.23
2023-03-29T13:59:57.605Z,11.27
2023-03-29T14:02:38.233Z,8.53
2023-03-29T14:05:11.665Z,8.87
2023-03-29T14:07:46.894Z,9.05
2023-03-29T14:10:21.241Z,8.30
2023-03-29T14:12:49.930Z,8.37
2023-03-29T14:15:35.171Z,7.93
2023-03-29T14:18:03.580Z,7.90
2023-03-29T14:20:33.217Z,7.88
2023-03-29T14:23:01.399Z,8.38
2023-03-29T14:25:30.544Z,8.73
2023-03-29T14:27:58.328Z,7.95
2023-03-29T14:30:29.090Z,8.02
2023-03-29T14:32:57.338Z,8.32
2023-03-29T14:35:33.051Z,9.30
2023-03-29T14:38:02.326Z,8.95
2023-03-29T14:40:32.673Z,9.10
2023-03-29T14:43:07.370Z,8.25
2023-03-29T14:45:36.905Z,8.77
2023-03-29T14:48:05.827Z,9.02
2023-03-29T14:50:34.616Z,9.35
2023-03-29T14:53:03.506Z,8.65
2023-03-29T14:55:33.572Z,8.88
2023-03-29T14:58:04.300Z,8.77
2023-03-29T15:00:44.363Z,9.40
2023-03-29T15:03:15.892Z,8.27
2023-03-29T15:05:52.111Z,8.65
2023-03-29T15:08:31.376Z,8.98
2023-03-29T15:11:01.766Z,8.35
2023-03-29T15:13:30.714Z,8.63
2023-03-29T15:16:05.168Z,9.05
2023-03-29T15:18:41.515Z,8.40
2023-03-29T15:21:14.816Z,8.30
2023-03-29T15:23:50.725Z,8.77
2023-03-29T15:26:26.261Z,8.07
2023-03-29T15:29:07.443Z,8.48
2023-03-29T15:31:38.400Z,8.10
2023-03-29T15:34:10.086Z,8.25
2023-03-29T15:36:42.407Z,8.60
2023-03-29T15:39:13.424Z,8.70
2023-03-29T15:41:46.625Z,8.13
2023-03-29T15:44:17.570Z,8.63
2023-03-29T15:46:45.507Z,8.02
2023-03-29T15:49:14.507Z,8.50
2023-03-29T15:51:42.285Z,7.82
2023-03-29T15:54:10.448Z,8.43
2023-03-29T15:56:48.028Z,8.40
2023-03-29T15:59:17.985Z,8.48
2023-03-29T16:01:46.599Z,7.75
2023-03-29T16:04:17.299Z,7.97
2023-03-29T16:06:48.673Z,7.72
2023-03-29T16:09:16.915Z,7.72
2023-03-29T16:11:47.320Z,7.35
2023-03-29T16:14:20.795Z,7.63
2023-03-29T16:16:49.127Z,6.72
2023-03-29T16:19:17.123Z,7.18
2023-03-29T16:21:45.512Z,7.40
2023-03-29T16:24:17.478Z,7.18
2023-03-29T16:26:47.732Z,6.70
2023-03-29T16:29:18.003Z,7.22
2023-03-29T16:31:47.750Z,7.38
2023-03-29T16:34:18.739Z,6.90
2023-03-29T16:36:47.837Z,7.30
2023-03-29T16:39:16.147Z,7.30
2023-03-29T16:41:48.430Z,7.43
2023-03-29T16:44:20.697Z,7.45
2023-03-29T16:46:53.677Z,7.53
2023-03-29T16:49:21.786Z,7.50
2023-03-29T16:51:49.588Z,7.72
2023-03-29T16:54:17.505Z,7.60
2023-03-29T16:56:46.949Z,6.88
2023-03-29T16:59:15.258Z,7.07
2023-03-29T17:01:43.220Z,6.72
2023-03-29T17:04:11.543Z,6.88
2023-03-29T17:06:39.423Z,6.80
2023-03-29T17:09:07.425Z,6.63
2023-03-29T17:11:36.098Z,6.60
2023-03-29T17:14:05.593Z,7.63
2023-03-29T17:16:33.525Z,6.93
2023-03-29T17:19:01.655Z,6.90
2023-03-29T17:21:30.689Z,6.53
2023-03-29T17:23:58.494Z,6.45
2023-03-29T17:26:26.588Z,6.55
2023-03-29T17:28:54.457Z,6.43
2023-03-29T17:31:23.706Z,6.47
2023-03-29T17:33:51.981Z,6.28
2023-03-29T17:36:23.869Z,5.85
2023-03-29T17:38:51.988Z,6.07
2023-03-29T17:41:19.798Z,5.85
2023-03-29T17:43:47.986Z,5.90
2023-03-29T17:46:16.689Z,5.50
2023-03-29T17:48:46.466Z,6.28
2023-03-29T17:51:14.296Z,5.80
2023-03-29T17:53:42.109Z,5.63
2023-03-29T17:56:10.053Z,5.35
2023-03-29T17:58:37.904Z,5.22
2023-03-29T18:01:10.565Z,4.85
2023-03-29T18:03:39.375Z,5.25
2023-03-29T18:06:09.351Z,5.32
2023-03-29T18:08:37.898Z,4.88
2023-03-29T18:11:07.606Z,5.78
2023-03-29T18:13:35.605Z,4.70
2023-03-29T18:16:04.360Z,5.22
2023-03-29T18:18:32.754Z,4.63
2023-03-29T18:21:01.446Z,4.82
2023-03-29T18:23:30.758Z,4.50
2023-03-29T18:25:59.605Z,4.93
2023-03-29T18:28:27.470Z,4.30
2023-03-29T18:30:55.562Z,4.53
2023-03-29T18:33:24.675Z,4.70
2023-03-29T18:35:52.801Z,4.57
2023-03-29T18:38:22.620Z,4.47
2023-03-29T18:40:52.196Z,4.37
2023-03-29T18:43:20.520Z,4.07
2023-03-29T18:45:48.475Z,4.60
2023-03-29T18:48:16.344Z,5.30
2023-03-29T18:50:47.770Z,5.50
2023-03-29T18:53:15.910Z,4.37
2023-03-29T18:55:44.535Z,4.60
2023-03-29T18:58:15.685Z,4.80
2023-03-29T19:00:44.175Z,4.90
2023-03-29T19:03:12.115Z,5.20
2023-03-29T19:05:40.222Z,4.97
2023-03-29T19:08:08.907Z,4.93
2023-03-29T19:10:37.018Z,4.93
2023-03-29T19:13:06.106Z,5.13
2023-03-29T19:15:35.313Z,5.10
2023-03-29T19:18:03.241Z,5.40
2023-03-29T19:20:31.226Z,5.20
2023-03-29T19:22:59.260Z,5.20
2023-03-29T19:25:27.604Z,5.53
2023-03-29T19:27:55.435Z,5.43
2023-03-29T19:30:23.763Z,5.17
2023-03-29T19:32:53.068Z,5.87
2023-03-29T19:35:21.215Z,5.37
2023-03-29T19:37:48.998Z,5.57
2023-03-29T19:40:17.214Z,5.50
2023-03-29T19:42:44.972Z,5.43
2023-03-29T19:45:13.016Z,5.77
2023-03-29T19:47:43.858Z,5.60
2023-03-29T19:50:14.220Z,5.47
2023-03-29T19:52:43.022Z,5.53
2023-03-29T19:55:10.831Z,5.70
2023-03-29T19:57:38.676Z,5.90
2023-03-29T20:00:10.731Z,5.80
2023-03-29T20:02:42.422Z,5.53
2023-03-29T20:05:10.496Z,5.68
2023-03-29T20:07:39.655Z,5.50
2023-03-29T20:10:09.706Z,6.07
2023-03-29T20:12:37.513Z,5.83
2023-03-29T20:15:06.610Z,5.77
2023-03-29T20:17:35.585Z,5.33
2023-03-29T20:20:09.014Z,5.10
2023-03-29T20:22:42.043Z,5.20
2023-03-29T20:25:10.971Z,5.90
2023-03-29T20:27:40.720Z,5.90
2023-03-29T20:30:11.417Z,5.07
2023-03-29T20:32:39.591Z,5.67
2023-03-29T20:35:08.468Z,5.43
2023-03-29T20:37:36.565Z,5.43
2023-03-29T20:40:08.209Z,5.40
2023-03-29T20:42:38.096Z,5.40
2023-03-29T20:45:07.965Z,6.07
2023-03-29T20:47:42.198Z,5.50
2023-03-29T20:50:10.973Z,5.70
2023-03-29T20:52:38.798Z,5.53
2023-03-29T20:55:08.097Z,5.63
2023-03-29T20:57:36.725Z,5.63
2023-03-29T21:00:12.428Z,5.00
2023-03-29T21:02:40.447Z,5.53
2023-03-29T21:05:09.603Z,5.40
2023-03-29T21:07:37.747Z,5.43
2023-03-29T21:10:08.385Z,4.97
2023-03-29T21:12:37.026Z,5.10
2023-03-29T21:15:05.667Z,5.23
2023-03-29T21:17:33.622Z,4.77
2023-03-29T21:20:02.679Z,5.23
2023-03-29T21:22:31.221Z,4.83
2023-03-29T21:25:00.023Z,4.87
2023-03-29T21:27:29.300Z,4.90
2023-03-29T21:29:57.028Z,4.67
2023-03-29T21:32:25.212Z,5.17
2023-03-29T21:34:53.005Z,4.80
2023-03-29T21:37:20.864Z,4.57
2023-03-29T21:39:48.626Z,4.67
2023-03-29T21:42:16.714Z,4.13
2023-03-29T21:44:46.191Z,4.60
2023-03-29T21:47:14.106Z,4.40
2023-03-29T21:49:41.955Z,4.27
2023-03-29T21:52:09.712Z,3.77
2023-03-29T21:54:37.629Z,4.00
2023-03-29T21:57:05.596Z,4.30
2023-03-29T21:59:33.409Z,4.07
2023-03-29T22:02:02.508Z,4.23
2023-03-29T22:04:37.250Z,4.03
2023-03-29T22:07:06.498Z,4.03
2023-03-29T22:09:35.218Z,3.90
2023-03-29T22:12:03.808Z,3.70
2023-03-29T22:14:34.708Z,4.20
2023-03-29T22:17:06.228Z,4.17
2023-03-29T22:19:41.666Z,4.20
2023-03-29T22:22:13.715Z,3.58
2023-03-29T22:24:42.556Z,4.23
2023-03-29T22:27:11.009Z,3.73
2023-03-29T22:29:38.777Z,3.97
2023-03-29T22:32:08.014Z,4.00
2023-03-29T22:34:36.223Z,4.00
2023-03-29T22:37:04.911Z,4.00
2023-03-29T22:39:34.942Z,4.60
2023-03-29T22:42:02.921Z,4.07
2023-03-29T22:44:30.726Z,3.87
2023-03-29T22:46:58.766Z,4.20
2023-03-29T22:49:27.998Z,4.23
2023-03-29T22:51:56.030Z,4.20
2023-03-29T22:54:24.045Z,4.20
2023-03-29T22:56:51.896Z,4.37
2023-03-29T22:59:19.925Z,4.27
2023-03-29T23:01:48.348Z,4.10
2023-03-29T23:04:16.894Z,4.10
2023-03-29T23:06:46.254Z,4.10
2023-03-29T23:09:15.950Z,3.93
2023-03-29T23:11:44.358Z,4.20
2023-03-29T23:14:12.175Z,4.20
2023-03-29T23:16:40.123Z,4.40
2023-03-29T23:19:08.017Z,4.03
2023-03-29T23:21:36.958Z,4.20
2023-03-29T23:24:07.034Z,4.10
2023-03-29T23:26:35.618Z,4.53
2023-03-29T23:29:04.102Z,4.27
2023-03-29T23:31:33.727Z,3.97
2023-03-29T23:34:03.078Z,4.40
2023-03-29T23:36:31.432Z,4.30
2023-03-29T23:38:59.609Z,4.40
2023-03-29T23:41:30.411Z,5.30
2023-03-29T23:43:58.283Z,4.10
2023-03-29T23:46:26.138Z,4.07
2023-03-29T23:48:54.063Z,3.77
2023-03-29T23:51:28.814Z,4.10
2023-03-29T23:53:56.843Z,4.45
2023-03-29T23:56:24.869Z,3.90
2023-03-29T23:58:54.430Z,3.80
